createdAt,value
2022-11-09T00:02:29.269Z,10.12
2022-11-09T00:05:31.975Z,10.29
2022-11-09T00:08:34.899Z,10.38
2022-11-09T00:11:39.399Z,10.41
2022-11-09T00:14:42.070Z,10.33
2022-11-09T00:17:44.987Z,10.28
2022-11-09T00:20:48.550Z,10.16
2022-11-09T00:23:52.231Z,10.16
2022-11-09T00:26:56.686Z,10.28
2022-11-09T00:29:59.328Z,10.30
2022-11-09T00:33:02.316Z,10.28
2022-11-09T00:36:08.572Z,10.39
2022-11-09T00:39:11.511Z,10.29
2022-11-09T00:42:15.564Z,10.30
2022-11-09T00:45:19.225Z,10.33
2022-11-09T00:48:22.315Z,10.42
2022-11-09T00:51:25.314Z,10.47
2022-11-09T00:54:28.246Z,10.56
2022-11-09T00:57:32.643Z,10.45
2022-11-09T01:00:35.335Z,10.44
2022-11-09T01:03:38.330Z,10.27
2022-11-09T01:06:41.390Z,10.28
2022-11-09T01:09:44.196Z,10.31
2022-11-09T01:12:48.264Z,10.17
2022-11-09T01:15:53.367Z,10.13
2022-11-09T01:18:58.299Z,10.05
2022-11-09T01:22:01.871Z,10.15
2022-11-09T01:25:04.939Z,10.09
2022-11-09T01:28:10.315Z,10.19
2022-11-09T01:31:15.448Z,10.08
2022-11-09T01:34:18.788Z,10.12
2022-11-09T01:37:21.811Z,10.04
2022-11-09T01:40:24.542Z,10.05
2022-11-09T01:43:29.258Z,10.08
2022-11-09T01:46:37.849Z,10.08
2022-11-09T01:49:45.805Z,10.07
2022-11-09T01:52:50.656Z,10.13
2022-11-09T01:55:56.604Z,10.08
2022-11-09T01:59:04.124Z,9.95
2022-11-09T02:02:06.870Z,10.12
2022-11-09T02:05:13.543Z,10.19
2022-11-09T02:08:20.297Z,10.17
2022-11-09T02:11:24.843Z,10.27
2022-11-09T02:14:30.601Z,10.29
2022-11-09T02:17:34.719Z,10.30
2022-11-09T02:20:48.431Z,10.20
2022-11-09T02:23:52.061Z,10.26
2022-11-09T02:26:55.916Z,10.20
2022-11-09T02:30:00.880Z,10.21
2022-11-09T02:33:03.866Z,10.27
2022-11-09T02:36:08.542Z,10.28
2022-11-09T02:39:12.159Z,10.22
2022-11-09T02:42:21.167Z,10.25
2022-11-09T02:45:24.746Z,10.21
2022-11-09T02:48:27.894Z,10.21
2022-11-09T02:51:32.021Z,10.19
2022-11-09T02:54:35.040Z,10.16
2022-11-09T02:57:37.745Z,10.21
2022-11-09T03:00:40.849Z,10.28
2022-11-09T03:03:43.984Z,10.31
2022-11-09T03:06:48.082Z,10.30
2022-11-09T03:09:51.114Z,10.30
2022-11-09T03:12:55.471Z,10.26
2022-11-09T03:15:58.479Z,10.31
2022-11-09T03:19:02.311Z,10.36
2022-11-09T03:22:06.903Z,10.40
2022-11-09T03:25:10.249Z,10.37
2022-11-09T03:28:13.316Z,10.33
2022-11-09T03:31:16.476Z,10.39
2022-11-09T03:34:19.434Z,10.32
2022-11-09T03:37:23.592Z,10.29
2022-11-09T03:40:26.670Z,10.27
2022-11-09T03:43:29.800Z,10.29
2022-11-09T03:46:32.534Z,10.32
2022-11-09T03:49:35.762Z,10.29
2022-11-09T03:52:39.799Z,10.37
2022-11-09T03:55:42.656Z,10.43
2022-11-09T03:58:45.403Z,10.32
2022-11-09T04:01:48.311Z,10.30
2022-11-09T04:04:51.087Z,10.21
2022-11-09T04:07:56.653Z,10.28
2022-11-09T04:10:59.379Z,10.44
2022-11-09T04:14:03.318Z,10.30
2022-11-09T04:17:06.022Z,10.23
2022-11-09T04:20:10.272Z,10.33
2022-11-09T04:23:14.925Z,10.21
2022-11-09T04:26:17.691Z,10.19
2022-11-09T04:29:20.449Z,10.19
2022-11-09T04:32:23.516Z,10.44
2022-11-09T04:35:27.880Z,10.29
2022-11-09T04:38:32.144Z,10.24
2022-11-09T04:41:35.347Z,10.39
2022-11-09T04:44:38.768Z,10.37
2022-11-09T04:47:41.854Z,10.45
2022-11-09T04:50:45.066Z,10.39
2022-11-09T04:53:49.420Z,10.39
2022-11-09T04:56:52.088Z,10.44
2022-11-09T04:59:55.349Z,10.43
2022-11-09T05:03:00.814Z,10.45
2022-11-09T05:06:24.254Z,10.48
2022-11-09T05:09:28.309Z,10.43
2022-11-09T05:12:31.205Z,10.46
2022-11-09T05:15:35.380Z,10.47
2022-11-09T05:18:38.360Z,10.47
2022-11-09T05:21:41.289Z,10.35
2022-11-09T05:24:44.369Z,10.49
2022-11-09T05:27:47.056Z,10.59
2022-11-09T05:30:50.072Z,10.55
2022-11-09T05:33:53.565Z,10.60
2022-11-09T05:37:02.271Z,10.51
2022-11-09T05:40:09.865Z,10.53
2022-11-09T05:43:12.821Z,10.59
2022-11-09T05:46:17.098Z,10.46
2022-11-09T05:49:19.820Z,10.41
2022-11-09T05:52:23.215Z,10.49
2022-11-09T05:55:27.529Z,10.53
2022-11-09T05:58:30.347Z,10.51
2022-11-09T06:01:33.553Z,10.46
2022-11-09T06:04:36.550Z,10.49
2022-11-09T06:07:39.493Z,10.51
2022-11-09T06:10:44.244Z,10.58
2022-11-09T06:13:46.975Z,10.62
2022-11-09T06:16:49.754Z,10.56
2022-11-09T06:19:52.773Z,10.51
2022-11-09T06:23:01.452Z,10.60
2022-11-09T06:26:10.020Z,10.73
2022-11-09T06:29:12.842Z,10.64
2022-11-09T06:32:15.755Z,10.57
2022-11-09T06:35:19.108Z,10.63
2022-11-09T06:38:21.834Z,10.63
2022-11-09T06:41:26.243Z,10.64
2022-11-09T06:44:28.953Z,10.60
2022-11-09T06:47:31.899Z,10.65
2022-11-09T06:50:35.105Z,10.62
2022-11-09T06:53:39.028Z,10.44
2022-11-09T06:56:43.397Z,10.70
2022-11-09T06:59:46.083Z,10.69
2022-11-09T07:02:49.050Z,10.78
2022-11-09T07:05:53.268Z,10.80
2022-11-09T07:08:56.812Z,10.91
2022-11-09T07:12:00.946Z,10.98
2022-11-09T07:15:05.093Z,10.90
2022-11-09T07:18:11.336Z,11.00
2022-11-09T07:21:14.661Z,10.95
2022-11-09T07:24:17.547Z,10.88
2022-11-09T07:27:27.299Z,10.84
2022-11-09T07:30:30.853Z,10.87
2022-11-09T07:33:33.688Z,10.85
2022-11-09T07:36:36.897Z,10.87
2022-11-09T07:39:39.683Z,10.80
2022-11-09T07:42:44.123Z,10.85
2022-11-09T07:45:47.015Z,10.86
2022-11-09T07:48:49.692Z,10.87
2022-11-09T07:51:52.481Z,10.85
2022-11-09T07:54:55.285Z,10.90
2022-11-09T07:58:00.925Z,10.91
2022-11-09T08:01:08.370Z,10.97
2022-11-09T08:04:11.343Z,10.93
2022-11-09T08:07:14.302Z,11.04
2022-11-09T08:10:17.314Z,11.08
2022-11-09T08:13:21.891Z,11.11
2022-11-09T08:16:25.274Z,11.15
2022-11-09T08:19:28.048Z,11.17
2022-11-09T08:22:30.687Z,11.26
2022-11-09T08:25:34.697Z,11.29
2022-11-09T08:28:39.331Z,11.24
2022-11-09T08:31:42.200Z,11.34
2022-11-09T08:34:47.963Z,11.46
2022-11-09T08:37:52.460Z,11.53
2022-11-09T08:40:58.625Z,11.56
2022-11-09T08:44:03.078Z,11.62
2022-11-09T08:47:06.019Z,11.69
2022-11-09T08:50:10.161Z,11.78
2022-11-09T08:53:13.021Z,11.87
2022-11-09T08:56:18.465Z,11.94
2022-11-09T08:59:22.717Z,12.02
2022-11-09T09:02:25.624Z,12.12
2022-11-09T09:05:28.409Z,12.19
2022-11-09T09:08:31.297Z,12.25
2022-11-09T09:11:34.205Z,12.27
2022-11-09T09:14:38.341Z,12.31
2022-11-09T09:17:41.026Z,12.32
2022-11-09T09:20:43.835Z,12.35
2022-11-09T09:23:48.594Z,12.40
2022-11-09T09:26:51.504Z,12.48
2022-11-09T09:29:55.629Z,12.52
2022-11-09T09:33:02.058Z,12.66
2022-11-09T09:36:05.597Z,12.79
2022-11-09T09:39:08.357Z,12.77
2022-11-09T09:42:17.351Z,13.05
2022-11-09T09:45:24.484Z,13.21
2022-11-09T09:48:33.805Z,13.53
2022-11-09T09:51:42.032Z,13.72
2022-11-09T09:54:54.025Z,13.78
2022-11-09T09:58:03.458Z,13.99
2022-11-09T10:01:15.079Z,14.07
2022-11-09T10:04:20.193Z,14.29
2022-11-09T10:07:29.277Z,14.38
2022-11-09T10:10:48.334Z,14.45
2022-11-09T10:14:16.940Z,14.46
2022-11-09T10:17:30.776Z,14.50
2022-11-09T10:20:51.747Z,14.50
2022-11-09T10:24:11.472Z,14.47
2022-11-09T10:27:27.239Z,14.42
2022-11-09T10:30:31.295Z,14.46
2022-11-09T10:33:35.710Z,14.42
2022-11-09T10:36:45.105Z,14.33
2022-11-09T10:39:53.372Z,14.28
2022-11-09T10:42:58.798Z,14.33
2022-11-09T10:46:05.165Z,14.31
2022-11-09T10:49:21.700Z,14.27
2022-11-09T10:52:43.051Z,14.25
2022-11-09T10:55:54.964Z,14.25
2022-11-09T10:58:57.818Z,14.28
2022-11-09T11:02:02.405Z,14.38
2022-11-09T11:05:27.619Z,14.40
2022-11-09T11:08:34.487Z,14.58
2022-11-09T11:11:38.999Z,14.66
2022-11-09T11:14:44.567Z,14.80
2022-11-09T11:17:47.301Z,14.92
2022-11-09T11:21:06.981Z,14.78
2022-11-09T11:24:16.859Z,14.66
2022-11-09T11:27:25.379Z,14.66
2022-11-09T11:30:34.994Z,14.68
2022-11-09T11:33:37.831Z,14.84
2022-11-09T11:36:55.205Z,14.98
2022-11-09T11:40:03.502Z,15.10
2022-11-09T11:43:20.028Z,15.08
2022-11-09T11:46:32.669Z,15.05
2022-11-09T11:49:56.940Z,14.96
2022-11-09T11:53:09.857Z,14.94
2022-11-09T11:56:22.381Z,14.81
2022-11-09T11:59:38.302Z,14.72
2022-11-09T12:03:07.668Z,14.66
2022-11-09T12:06:34.346Z,14.63
2022-11-09T12:10:03.683Z,14.75
2022-11-09T12:13:14.115Z,14.84
2022-11-09T12:16:26.136Z,14.96
2022-11-09T12:19:52.655Z,14.97
2022-11-09T12:23:19.078Z,15.03
2022-11-09T12:26:35.370Z,15.05
2022-11-09T12:29:47.531Z,15.05
2022-11-09T12:32:55.023Z,15.06
2022-11-09T12:36:03.294Z,15.07
2022-11-09T12:39:15.048Z,15.06
2022-11-09T12:42:23.987Z,15.08
2022-11-09T12:45:32.666Z,15.09
2022-11-09T12:48:36.329Z,15.14
2022-11-09T12:51:39.452Z,15.13
2022-11-09T12:54:45.196Z,15.14
2022-11-09T12:57:49.717Z,15.16
2022-11-09T13:00:56.007Z,15.15
2022-11-09T13:04:01.145Z,15.12
2022-11-09T13:07:19.696Z,15.11
2022-11-09T13:10:28.385Z,15.12
2022-11-09T13:13:32.459Z,15.11
2022-11-09T13:16:36.870Z,15.11
2022-11-09T13:19:56.270Z,15.10
2022-11-09T13:23:01.765Z,15.11
2022-11-09T13:26:06.090Z,15.14
2022-11-09T13:29:22.510Z,15.07
2022-11-09T13:32:27.937Z,15.16
2022-11-09T13:36:18.411Z,15.18
2022-11-09T13:39:31.864Z,15.18
2022-11-09T13:42:37.227Z,15.17
2022-11-09T13:45:46.068Z,15.19
2022-11-09T13:48:50.024Z,15.18
2022-11-09T13:51:52.784Z,15.16
2022-11-09T13:54:55.933Z,15.16
2022-11-09T13:58:04.588Z,15.14
2022-11-09T14:01:27.619Z,15.12
2022-11-09T14:04:36.720Z,15.10
2022-11-09T14:07:39.592Z,15.10
2022-11-09T14:10:55.783Z,15.09
2022-11-09T14:14:13.271Z,15.04
2022-11-09T14:17:27.614Z,15.00
2022-11-09T14:20:40.629Z,14.98
2022-11-09T14:23:43.646Z,14.96
2022-11-09T14:27:14.630Z,14.87
2022-11-09T14:30:21.727Z,14.89
2022-11-09T14:33:27.936Z,14.84
2022-11-09T14:36:32.593Z,14.81
2022-11-09T14:39:35.779Z,14.78
2022-11-09T14:42:44.956Z,14.77
2022-11-09T14:45:50.897Z,14.72
2022-11-09T14:48:58.365Z,14.59
2022-11-09T14:52:02.352Z,14.67
2022-11-09T14:55:06.100Z,14.64
2022-11-09T14:58:14.409Z,14.59
2022-11-09T15:01:23.884Z,14.56
2022-11-09T15:04:28.748Z,14.52
2022-11-09T15:07:34.173Z,14.47
2022-11-09T15:10:38.849Z,14.43
2022-11-09T15:13:42.763Z,14.39
2022-11-09T15:16:46.786Z,14.38
2022-11-09T15:19:53.735Z,14.35
2022-11-09T15:22:57.768Z,14.35
2022-11-09T15:26:00.715Z,14.30
2022-11-09T15:29:36.768Z,14.25
2022-11-09T15:32:40.596Z,14.22
2022-11-09T15:35:51.133Z,14.17
2022-11-09T15:39:03.972Z,14.16
2022-11-09T15:42:06.774Z,14.17
2022-11-09T15:45:14.843Z,14.09
2022-11-09T15:48:18.044Z,14.07
2022-11-09T15:51:22.343Z,14.03
2022-11-09T15:54:25.306Z,14.03
2022-11-09T15:57:28.126Z,14.03
2022-11-09T16:00:31.090Z,14.01
2022-11-09T16:03:34.085Z,14.00
2022-11-09T16:06:40.386Z,13.98
2022-11-09T16:09:46.566Z,13.95
2022-11-09T16:12:49.247Z,13.92
2022-11-09T16:15:52.080Z,13.91
2022-11-09T16:18:55.615Z,13.86
2022-11-09T16:22:02.278Z,13.86
2022-11-09T16:25:05.507Z,13.84
2022-11-09T16:28:08.219Z,13.81
2022-11-09T16:31:12.519Z,13.79
2022-11-09T16:34:16.082Z,13.79
2022-11-09T16:37:20.693Z,13.75
2022-11-09T16:40:23.796Z,13.75
2022-11-09T16:43:26.654Z,13.73
2022-11-09T16:46:30.333Z,13.73
2022-11-09T16:49:33.172Z,13.71
2022-11-09T16:52:37.281Z,13.70
2022-11-09T16:55:40.148Z,13.70
2022-11-09T16:58:42.857Z,13.69
2022-11-09T17:01:51.277Z,13.66
2022-11-09T17:04:54.181Z,13.64
2022-11-09T17:07:58.224Z,13.62
2022-11-09T17:11:01.068Z,13.62
2022-11-09T17:14:03.782Z,13.65
2022-11-09T17:17:06.607Z,13.63
2022-11-09T17:20:10.575Z,13.63
2022-11-09T17:23:18.118Z,13.65
2022-11-09T17:26:21.495Z,13.64
2022-11-09T17:29:24.864Z,13.63
2022-11-09T17:32:28.270Z,13.64
2022-11-09T17:35:36.733Z,13.61
2022-11-09T17:38:41.604Z,13.62
2022-11-09T17:41:44.667Z,13.65
2022-11-09T17:44:47.671Z,13.68
2022-11-09T17:47:50.409Z,13.71
2022-11-09T17:50:53.505Z,13.67
2022-11-09T17:53:58.191Z,13.68
2022-11-09T17:57:02.425Z,13.69
2022-11-09T18:00:06.389Z,13.67
2022-11-09T18:03:09.269Z,13.68
2022-11-09T18:06:14.343Z,13.66
2022-11-09T18:09:40.420Z,13.65
2022-11-09T18:12:43.147Z,13.64
2022-11-09T18:15:46.052Z,13.59
2022-11-09T18:18:49.099Z,13.58
2022-11-09T18:21:51.880Z,13.54
2022-11-09T18:24:55.868Z,13.51
2022-11-09T18:27:58.700Z,13.52
2022-11-09T18:31:02.685Z,13.51
2022-11-09T18:34:05.645Z,13.50
2022-11-09T18:37:08.606Z,13.49
2022-11-09T18:40:13.494Z,13.47
2022-11-09T18:43:16.801Z,13.49
2022-11-09T18:46:21.122Z,13.41
2022-11-09T18:49:24.027Z,13.47
2022-11-09T18:52:26.882Z,13.45
2022-11-09T18:55:31.663Z,13.46
2022-11-09T18:58:34.463Z,13.46
2022-11-09T19:01:37.821Z,13.46
2022-11-09T19:04:41.097Z,13.45
2022-11-09T19:07:43.849Z,13.45
2022-11-09T19:10:47.949Z,13.44
2022-11-09T19:13:50.783Z,13.43
2022-11-09T19:16:54.012Z,13.42
2022-11-09T19:19:57.309Z,13.42
2022-11-09T19:23:00.645Z,13.40
2022-11-09T19:26:04.688Z,13.36
2022-11-09T19:29:07.802Z,13.33
2022-11-09T19:32:10.833Z,13.31
2022-11-09T19:35:15.547Z,13.31
2022-11-09T19:38:20.341Z,13.29
2022-11-09T19:41:25.544Z,13.27
2022-11-09T19:44:28.368Z,13.22
2022-11-09T19:47:31.162Z,13.20
2022-11-09T19:50:33.816Z,13.17
2022-11-09T19:53:42.029Z,13.13
2022-11-09T19:56:46.452Z,13.10
2022-11-09T19:59:49.478Z,13.05
2022-11-09T20:02:52.243Z,13.02
2022-11-09T20:05:55.740Z,12.95
2022-11-09T20:09:00.675Z,12.90
2022-11-09T20:12:34.220Z,12.83
2022-11-09T20:15:37.119Z,12.77
2022-11-09T20:18:40.687Z,12.69
2022-11-09T20:21:44.551Z,12.68
2022-11-09T20:24:47.250Z,12.61
2022-11-09T20:27:51.335Z,12.58
2022-11-09T20:30:56.723Z,12.53
2022-11-09T20:34:00.828Z,12.48
2022-11-09T20:37:04.887Z,12.46
2022-11-09T20:40:09.010Z,12.40
2022-11-09T20:43:13.245Z,12.38
2022-11-09T20:46:18.695Z,12.34
2022-11-09T20:49:22.199Z,12.33
2022-11-09T20:52:24.920Z,12.31
2022-11-09T20:55:28.235Z,12.27
2022-11-09T20:58:32.941Z,12.23
2022-11-09T21:01:35.718Z,12.19
2022-11-09T21:04:38.485Z,12.17
2022-11-09T21:07:41.204Z,12.13
2022-11-09T21:10:45.198Z,12.12
2022-11-09T21:13:52.007Z,12.07
2022-11-09T21:16:54.857Z,12.04
2022-11-09T21:19:58.868Z,12.02
2022-11-09T21:23:19.064Z,11.98
2022-11-09T21:26:39.579Z,11.90
2022-11-09T21:29:52.748Z,11.83
2022-11-09T21:32:55.788Z,11.81
2022-11-09T21:35:59.247Z,11.73
2022-11-09T21:39:02.572Z,11.73
2022-11-09T21:42:06.121Z,11.67
2022-11-09T21:45:10.746Z,11.63
2022-11-09T21:48:13.493Z,11.57
2022-11-09T21:51:16.723Z,11.52
2022-11-09T21:54:19.792Z,11.54
2022-11-09T21:57:23.014Z,11.48
2022-11-09T22:00:27.109Z,11.44
2022-11-09T22:03:30.125Z,11.40
2022-11-09T22:06:32.959Z,11.35
2022-11-09T22:10:05.885Z,11.31
2022-11-09T22:13:16.994Z,11.25
2022-11-09T22:16:22.350Z,11.21
2022-11-09T22:19:42.588Z,11.22
2022-11-09T22:22:45.316Z,11.25
2022-11-09T22:25:48.419Z,11.27
2022-11-09T22:28:51.121Z,11.26
2022-11-09T22:31:55.881Z,11.31
2022-11-09T22:34:58.575Z,11.28
2022-11-09T22:38:03.611Z,11.27
2022-11-09T22:41:12.305Z,11.25
2022-11-09T22:44:15.500Z,11.23
2022-11-09T22:47:19.563Z,11.25
2022-11-09T22:50:22.715Z,11.27
2022-11-09T22:53:25.432Z,11.27
2022-11-09T22:56:28.515Z,11.24
2022-11-09T22:59:31.617Z,11.19
2022-11-09T23:02:35.687Z,11.13
2022-11-09T23:05:38.652Z,11.03
2022-11-09T23:08:41.589Z,11.00
2022-11-09T23:11:44.368Z,10.87
2022-11-09T23:15:05.392Z,10.76
2022-11-09T23:18:27.238Z,10.67
2022-11-09T23:21:32.072Z,10.57
2022-11-09T23:24:53.257Z,10.49
2022-11-09T23:27:55.988Z,10.40
2022-11-09T23:31:00.667Z,10.31
2022-11-09T23:34:09.837Z,10.25
2022-11-09T23:37:12.949Z,10.19
2022-11-09T23:40:16.223Z,10.12
2022-11-09T23:43:19.268Z,10.05
2022-11-09T23:46:22.194Z,9.99
2022-11-09T23:49:26.262Z,9.95
2022-11-09T23:52:29.177Z,9.91
2022-11-09T23:55:31.973Z,9.87
2022-11-09T23:58:35.137Z,9.82
